createdAt,value
2023-02-12T00:01:29.349Z,99.8
2023-02-12T00:06:29.177Z,99.9
2023-02-12T00:11:29.082Z,99.9
2023-02-12T00:16:29.229Z,99.9
2023-02-12T00:21:29.081Z,99.9
2023-02-12T00:26:29.090Z,99.9
2023-02-12T00:31:29.138Z,99.9
2023-02-12T00:36:29.187Z,99.9
2023-02-12T00:41:29.163Z,99.9
2023-02-12T00:46:29.150Z,99.9
2023-02-12T00:51:29.102Z,99.9
2023-02-12T00:56:29.096Z,99.9
2023-02-12T01:01:29.104Z,99.9
2023-02-12T01:06:29.072Z,99.9
2023-02-12T01:11:29.121Z,99.9
2023-02-12T01:16:29.194Z,99.9
2023-02-12T01:21:29.193Z,99.9
2023-02-12T01:26:29.100Z,99.9
2023-02-12T01:31:29.260Z,99.9
2023-02-12T01:36:29.114Z,99.9
2023-02-12T01:41:29.152Z,99.9
2023-02-12T01:46:29.113Z,99.9
2023-02-12T01:51:29.116Z,99.9
2023-02-12T01:56:29.121Z,99.9
2023-02-12T02:01:29.150Z,99.9
2023-02-12T02:06:29.116Z,99.9
2023-02-12T02:11:29.135Z,99.9
2023-02-12T02:16:29.187Z,99.9
2023-02-12T02:21:29.142Z,99.9
2023-02-12T02:26:29.086Z,99.9
2023-02-12T02:31:29.153Z,99.9
2023-02-12T02:36:29.092Z,99.9
2023-02-12T02:41:29.068Z,99.9
2023-02-12T02:46:29.155Z,99.9
2023-02-12T02:51:29.070Z,99.9
2023-02-12T02:56:29.108Z,99.9
2023-02-12T03:01:29.073Z,99.9
2023-02-12T03:06:29.074Z,99.9
2023-02-12T03:11:29.167Z,99.9
2023-02-12T03:16:29.231Z,99.9
2023-02-12T03:21:29.133Z,99.9
2023-02-12T03:26:29.092Z,99.9
2023-02-12T03:31:29.265Z,99.9
2023-02-12T03:36:29.114Z,99.9
2023-02-12T03:41:29.149Z,99.9
2023-02-12T03:46:29.120Z,99.9
2023-02-12T03:51:29.120Z,99.9
2023-02-12T03:56:29.145Z,99.9
2023-02-12T04:01:29.189Z,99.9
2023-02-12T04:06:29.140Z,99.9
2023-02-12T04:11:29.061Z,99.9
2023-02-12T04:16:37.655Z,99.9
2023-02-12T04:21:29.072Z,99.9
2023-02-12T04:26:29.035Z,99.9
2023-02-12T04:31:29.177Z,99.9
2023-02-12T04:36:29.094Z,99.9
2023-02-12T04:41:29.061Z,99.9
2023-02-12T04:46:29.113Z,99.9
2023-02-12T04:51:29.051Z,99.9
2023-02-12T04:56:29.033Z,99.9
2023-02-12T05:01:31.303Z,99.9
2023-02-12T05:06:29.246Z,99.9
2023-02-12T05:11:29.031Z,99.9
2023-02-12T05:16:29.050Z,99.9
2023-02-12T05:21:29.058Z,99.9
2023-02-12T05:26:29.036Z,99.9
2023-02-12T05:31:29.131Z,99.9
2023-02-12T05:36:29.037Z,99.9
2023-02-12T05:41:29.080Z,99.9
2023-02-12T05:46:29.038Z,99.9
2023-02-12T05:51:29.053Z,99.9
2023-02-12T05:56:29.032Z,99.9
2023-02-12T06:01:29.057Z,99.9
2023-02-12T06:06:29.275Z,99.9
2023-02-12T06:11:29.006Z,99.9
2023-02-12T06:16:29.259Z,99.9
2023-02-12T06:21:29.039Z,99.9
2023-02-12T06:26:29.005Z,99.9
2023-02-12T06:31:29.227Z,99.9
2023-02-12T06:36:29.293Z,99.9
2023-02-12T06:41:29.040Z,99.9
2023-02-12T06:46:29.280Z,99.9
2023-02-12T06:51:29.060Z,99.9
2023-02-12T06:56:29.008Z,99.9
2023-02-12T07:01:29.035Z,99.9
2023-02-12T07:06:29.026Z,99.9
2023-02-12T07:11:29.013Z,99.9
2023-02-12T07:16:29.219Z,99.9
2023-02-12T07:21:29.359Z,99.9
2023-02-12T07:26:29.133Z,99.9
2023-02-12T07:31:29.418Z,99.9
2023-02-12T07:36:29.290Z,99.9
2023-02-12T07:41:29.123Z,99.9
2023-02-12T07:46:29.318Z,99.9
2023-02-12T07:51:29.326Z,99.9
2023-02-12T07:56:29.094Z,99.9
2023-02-12T08:01:29.133Z,99.9
2023-02-12T08:06:29.087Z,99.9
2023-02-12T08:11:29.103Z,99.9
2023-02-12T08:16:29.790Z,99.9
2023-02-12T08:21:29.369Z,99.9
2023-02-12T08:26:29.265Z,99.9
2023-02-12T08:31:29.157Z,99.9
2023-02-12T08:36:29.124Z,99.9
2023-02-12T08:41:29.184Z,99.9
2023-02-12T08:46:29.206Z,99.9
2023-02-12T08:51:29.117Z,99.9
2023-02-12T08:56:29.134Z,99.9
2023-02-12T09:01:29.162Z,99.9
2023-02-12T09:06:29.140Z,99.9
2023-02-12T09:11:29.185Z,99.9
2023-02-12T09:16:29.195Z,99.9
2023-02-12T09:21:29.141Z,99.9
2023-02-12T09:26:29.107Z,99.9
2023-02-12T09:31:29.404Z,98.4
2023-02-12T09:36:29.109Z,91.7
2023-02-12T09:44:08.699Z,68.8
2023-02-12T09:49:08.738Z,58.4
2023-02-12T09:54:08.632Z,53.3
2023-02-12T09:59:08.668Z,49.6
2023-02-12T10:04:08.663Z,47
2023-02-12T10:09:08.600Z,44.8
2023-02-12T10:14:08.588Z,43.3
2023-02-12T10:19:08.618Z,42.1
2023-02-12T10:24:08.604Z,40.9
2023-02-12T10:29:08.606Z,39.9
2023-02-12T10:34:08.592Z,39.3
2023-02-12T10:39:08.614Z,39
2023-02-12T10:44:08.662Z,38.4
2023-02-12T10:49:08.625Z,37.8
2023-02-12T10:54:08.569Z,37.8
2023-02-12T10:59:08.649Z,37.7
2023-02-12T11:04:08.642Z,37.8
2023-02-12T11:09:08.609Z,37.9
2023-02-12T11:14:08.564Z,38.4
2023-02-12T11:19:08.644Z,38.3
2023-02-12T11:24:08.618Z,38.6
2023-02-12T11:29:08.868Z,38.7
2023-02-12T11:34:08.607Z,39
2023-02-12T11:39:08.669Z,39.9
2023-02-12T11:44:08.650Z,40.4
2023-02-12T11:49:08.628Z,40.7
2023-02-12T11:54:08.633Z,40.8
2023-02-12T11:59:08.639Z,41.1
2023-02-12T12:04:08.646Z,41.3
2023-02-12T12:09:08.662Z,41.7
2023-02-12T12:14:08.624Z,42.3
2023-02-12T12:19:08.632Z,42.6
2023-02-12T12:24:08.621Z,43.3
2023-02-12T12:29:08.625Z,43.8
2023-02-12T12:34:08.618Z,44.3
2023-02-12T12:39:08.628Z,44.9
2023-02-12T12:44:08.626Z,45.2
2023-02-12T12:49:08.632Z,45.4
2023-02-12T12:54:08.596Z,45.8
2023-02-12T12:59:08.582Z,46.5
2023-02-12T13:04:08.621Z,47.1
2023-02-12T13:09:08.743Z,47.3
2023-02-12T13:14:08.601Z,47.8
2023-02-12T13:19:08.605Z,48.2
2023-02-12T13:24:08.638Z,48
2023-02-12T13:29:08.616Z,48
2023-02-12T13:34:08.597Z,48.2
2023-02-12T13:39:08.604Z,47.6
2023-02-12T13:44:08.626Z,46.8
2023-02-12T13:49:08.599Z,45.6
2023-02-12T13:54:08.584Z,45.3
2023-02-12T13:59:08.595Z,45.3
2023-02-12T14:04:08.708Z,45.8
2023-02-12T14:09:08.586Z,46
2023-02-12T14:14:08.608Z,46.6
2023-02-12T14:19:08.599Z,46.5
2023-02-12T14:24:08.612Z,47.1
2023-02-12T14:29:08.585Z,47.3
2023-02-12T14:34:08.589Z,47.6
2023-02-12T14:39:08.602Z,48.1
2023-02-12T14:44:08.615Z,48.7
2023-02-12T14:49:08.607Z,49.2
2023-02-12T14:54:08.590Z,49.6
2023-02-12T14:59:08.598Z,50
2023-02-12T15:04:08.625Z,50.6
2023-02-12T15:09:08.599Z,50.9
2023-02-12T15:14:08.601Z,51.2
2023-02-12T15:19:08.641Z,51.1
2023-02-12T15:24:08.665Z,51.5
2023-02-12T15:29:08.595Z,51.6
2023-02-12T15:34:08.571Z,51.7
2023-02-12T15:39:08.611Z,52.1
2023-02-12T15:44:08.626Z,52.5
2023-02-12T15:49:08.607Z,52.9
2023-02-12T15:54:08.603Z,53
2023-02-12T15:59:08.617Z,53.3
2023-02-12T16:04:08.706Z,53.3
2023-02-12T16:09:08.603Z,53.5
2023-02-12T16:14:08.600Z,53.5
2023-02-12T16:19:08.588Z,53.6
2023-02-12T16:24:08.616Z,53.7
2023-02-12T16:29:08.595Z,53.7
2023-02-12T16:34:08.597Z,53.7
2023-02-12T16:39:08.605Z,53.9
2023-02-12T16:44:08.620Z,53.8
2023-02-12T16:49:08.606Z,53.8
2023-02-12T16:54:08.630Z,54
2023-02-12T16:59:08.604Z,54.1
2023-02-12T17:04:08.616Z,54.3
2023-02-12T17:09:08.604Z,54.5
2023-02-12T17:14:08.593Z,54.7
2023-02-12T17:19:08.612Z,54.8
2023-02-12T17:24:08.632Z,54.9
2023-02-12T17:29:08.621Z,54.9
2023-02-12T17:34:08.644Z,55
2023-02-12T17:39:08.665Z,55.5
2023-02-12T17:44:08.660Z,55.7
2023-02-12T17:49:08.627Z,56
2023-02-12T17:54:08.620Z,56.3
2023-02-12T17:59:08.639Z,56.6
2023-02-12T18:04:08.724Z,57.3
2023-02-12T18:09:08.777Z,57.9
2023-02-12T18:14:08.640Z,58.3
2023-02-12T18:19:08.642Z,58.6
2023-02-12T18:24:08.704Z,58.8
2023-02-12T18:29:08.752Z,59
2023-02-12T18:34:08.670Z,59.1
2023-02-12T18:39:08.691Z,59.2
2023-02-12T18:44:08.707Z,59.3
2023-02-12T18:49:08.674Z,59.3
2023-02-12T18:54:08.732Z,59.4
2023-02-12T18:59:08.953Z,59.7
2023-02-12T19:04:08.736Z,59.6
2023-02-12T19:09:08.658Z,59.6
2023-02-12T19:14:08.696Z,59.4
2023-02-12T19:19:08.663Z,59.4
2023-02-12T19:24:08.684Z,59.4
2023-02-12T19:29:08.724Z,59.5
2023-02-12T19:34:08.656Z,59.6
2023-02-12T19:39:08.779Z,59.6
2023-02-12T19:44:08.751Z,59.8
2023-02-12T19:49:08.667Z,59.9
2023-02-12T19:54:08.641Z,60.2
2023-02-12T19:59:08.649Z,61
2023-02-12T20:04:08.760Z,61.5
2023-02-12T20:09:08.712Z,61.7
2023-02-12T20:14:08.642Z,62.4
2023-02-12T20:19:08.653Z,62
2023-02-12T20:24:08.686Z,62
2023-02-12T20:29:08.662Z,59.2
2023-02-12T20:34:08.662Z,58.4
2023-02-12T20:39:08.803Z,58.4
2023-02-12T20:44:08.698Z,58.9
2023-02-12T20:49:08.678Z,59.1
2023-02-12T20:54:08.730Z,59.6
2023-02-12T20:59:08.766Z,58.8
2023-02-12T21:04:08.753Z,58.7
2023-02-12T21:09:08.860Z,57.5
2023-02-12T21:14:21.108Z,57
2023-02-12T21:19:08.826Z,57.4
2023-02-12T21:24:08.714Z,57.7
2023-02-12T21:29:08.694Z,58.3
2023-02-12T21:34:08.697Z,57.2
2023-02-12T21:39:08.770Z,56.6
2023-02-12T21:44:08.751Z,56.6
2023-02-12T21:49:08.696Z,55.4
2023-02-12T21:54:08.751Z,55.4
2023-02-12T21:59:08.688Z,54.6
2023-02-12T22:04:08.709Z,53.6
2023-02-12T22:09:08.994Z,52.6
2023-02-12T22:14:08.683Z,51.7
2023-02-12T22:19:08.668Z,50.2
2023-02-12T22:24:08.719Z,54.2
2023-02-12T22:29:08.668Z,58.1
2023-02-12T22:34:08.661Z,61.6
2023-02-12T22:39:08.655Z,65.6
2023-02-12T22:44:08.693Z,68.6
2023-02-12T22:49:08.684Z,70.8
2023-02-12T22:54:08.654Z,74.7
2023-02-12T22:59:08.675Z,78.1
2023-02-12T23:04:08.743Z,81.6
2023-02-12T23:09:08.659Z,85.9
2023-02-12T23:14:08.640Z,90
2023-02-12T23:19:08.666Z,92.2
2023-02-12T23:24:08.688Z,93.8
2023-02-12T23:29:08.735Z,95.1
2023-02-12T23:34:08.697Z,96.8
2023-02-12T23:39:08.705Z,98.6
2023-02-12T23:44:08.714Z,99.9
2023-02-12T23:49:08.686Z,99.9
2023-02-12T23:54:08.674Z,99.9
2023-02-12T23:59:08.659Z,99.9
